createdAt,value
2019-02-24T00:01:58.567Z,6.60
2019-02-24T00:04:27.949Z,6.50
2019-02-24T00:06:57.240Z,6.40
2019-02-24T00:09:26.544Z,6.40
2019-02-24T00:11:55.969Z,6.30
2019-02-24T00:14:25.328Z,6.20
2019-02-24T00:16:54.741Z,6.20
2019-02-24T00:19:24.162Z,6.10
2019-02-24T00:21:53.459Z,6.10
2019-02-24T00:24:22.837Z,6.00
2019-02-24T00:26:52.174Z,6.00
2019-02-24T00:29:21.573Z,5.90
2019-02-24T00:31:50.878Z,5.90
2019-02-24T00:34:20.276Z,5.80
2019-02-24T00:36:49.584Z,5.80
2019-02-24T00:39:18.872Z,5.70
2019-02-24T00:41:48.211Z,5.70
2019-02-24T00:44:17.509Z,5.70
2019-02-24T00:46:46.862Z,5.70
2019-02-24T00:49:16.233Z,5.70
2019-02-24T00:51:45.663Z,5.70
2019-02-24T00:54:14.960Z,5.70
2019-02-24T00:56:44.278Z,5.70
2019-02-24T00:59:13.648Z,5.70
2019-02-24T01:01:43.028Z,5.60
2019-02-24T01:04:12.385Z,5.60
2019-02-24T01:06:41.678Z,5.60
2019-02-24T01:09:10.980Z,5.50
2019-02-24T01:11:40.367Z,5.40
2019-02-24T01:14:09.757Z,5.30
2019-02-24T01:16:39.282Z,5.20
2019-02-24T01:19:08.917Z,5.20
2019-02-24T01:21:38.301Z,5.10
2019-02-24T01:24:07.620Z,5.00
2019-02-24T01:26:36.990Z,5.00
2019-02-24T01:29:06.366Z,5.00
2019-02-24T01:31:35.744Z,4.90
2019-02-24T01:34:05.064Z,4.90
2019-02-24T01:36:34.381Z,4.90
2019-02-24T01:39:04.314Z,4.80
2019-02-24T01:41:33.659Z,4.90
2019-02-24T01:44:03.073Z,4.80
2019-02-24T01:46:32.364Z,4.80
2019-02-24T01:49:01.728Z,4.80
2019-02-24T01:51:31.119Z,4.70
2019-02-24T01:54:00.409Z,4.70
2019-02-24T01:56:29.813Z,4.60
2019-02-24T01:58:59.665Z,4.60
2019-02-24T02:01:29.035Z,4.50
2019-02-24T02:03:58.436Z,4.50
2019-02-24T02:06:27.844Z,4.50
2019-02-24T02:08:57.142Z,4.50
2019-02-24T02:11:26.538Z,4.40
2019-02-24T02:13:55.934Z,4.40
2019-02-24T02:16:25.291Z,4.40
2019-02-24T02:18:54.682Z,4.40
2019-02-24T02:21:24.069Z,4.40
2019-02-24T02:23:53.451Z,4.30
2019-02-24T02:26:22.812Z,4.30
2019-02-24T02:28:52.192Z,4.30
2019-02-24T02:31:21.575Z,4.20
2019-02-24T02:33:50.890Z,4.20
2019-02-24T02:36:20.202Z,4.10
2019-02-24T02:38:50.167Z,4.10
2019-02-24T02:41:19.463Z,4.00
2019-02-24T02:43:48.849Z,3.90
2019-02-24T02:46:18.196Z,3.90
2019-02-24T02:48:47.550Z,3.80
2019-02-24T02:51:16.856Z,3.80
2019-02-24T02:53:46.186Z,3.90
2019-02-24T02:56:15.590Z,3.90
2019-02-24T02:58:53.614Z,3.80
2019-02-24T03:01:15.937Z,3.80
2019-02-24T03:03:45.259Z,3.80
2019-02-24T03:06:20.086Z,3.70
2019-02-24T03:08:51.593Z,3.70
2019-02-24T03:11:20.937Z,3.70
2019-02-24T03:13:50.325Z,3.60
2019-02-24T03:16:23.989Z,3.60
2019-02-24T03:18:53.336Z,3.50
2019-02-24T03:21:22.615Z,3.60
2019-02-24T03:23:52.000Z,3.50
2019-02-24T03:26:21.306Z,3.50
2019-02-24T03:28:50.741Z,3.50
2019-02-24T03:31:20.077Z,3.40
2019-02-24T03:33:49.384Z,3.40
2019-02-24T03:36:18.828Z,3.50
2019-02-24T03:38:48.209Z,3.40
2019-02-24T03:41:17.620Z,3.40
2019-02-24T03:43:46.987Z,3.50
2019-02-24T03:46:17.018Z,3.40
2019-02-24T03:48:46.324Z,3.30
2019-02-24T03:51:15.655Z,3.30
2019-02-24T03:53:45.088Z,3.30
2019-02-24T03:56:14.415Z,3.20
2019-02-24T03:58:44.663Z,3.20
2019-02-24T04:01:14.058Z,3.20
2019-02-24T04:03:43.416Z,3.20
2019-02-24T04:06:12.793Z,3.10
2019-02-24T04:08:42.215Z,3.10
2019-02-24T04:11:11.574Z,3.10
2019-02-24T04:13:40.929Z,3.10
2019-02-24T04:16:10.287Z,3.10
2019-02-24T04:18:39.618Z,3.10
2019-02-24T04:21:08.937Z,3.00
2019-02-24T04:23:38.295Z,3.00
2019-02-24T04:26:08.192Z,3.00
2019-02-24T04:28:37.528Z,3.00
2019-02-24T04:31:06.922Z,2.90
2019-02-24T04:33:36.311Z,2.90
2019-02-24T04:36:05.714Z,2.90
2019-02-24T04:38:35.141Z,2.90
2019-02-24T04:41:04.436Z,2.80
2019-02-24T04:43:33.798Z,2.80
2019-02-24T04:46:03.065Z,2.80
2019-02-24T04:48:32.421Z,2.70
2019-02-24T04:51:01.893Z,2.60
2019-02-24T04:53:31.308Z,2.60
2019-02-24T04:56:00.614Z,2.60
2019-02-24T04:58:30.003Z,2.60
2019-02-24T05:00:59.410Z,2.60
2019-02-24T05:03:28.805Z,2.70
2019-02-24T05:05:58.255Z,2.60
2019-02-24T05:08:27.588Z,2.70
2019-02-24T05:10:56.976Z,2.70
2019-02-24T05:13:26.364Z,2.60
2019-02-24T05:15:55.801Z,2.60
2019-02-24T05:18:25.113Z,2.60
2019-02-24T05:20:54.534Z,2.60
2019-02-24T05:23:23.876Z,2.50
2019-02-24T05:25:53.221Z,2.50
2019-02-24T05:28:22.567Z,2.50
2019-02-24T05:30:52.044Z,2.50
2019-02-24T05:33:21.375Z,2.50
2019-02-24T05:35:50.683Z,2.50
2019-02-24T05:38:20.067Z,2.50
2019-02-24T05:40:49.441Z,2.50
2019-02-24T05:43:18.764Z,2.50
2019-02-24T05:45:48.184Z,2.40
2019-02-24T05:48:17.559Z,2.40
2019-02-24T05:50:46.974Z,2.40
2019-02-24T05:53:16.375Z,2.30
2019-02-24T05:55:45.753Z,2.30
2019-02-24T05:58:15.166Z,2.30
2019-02-24T06:00:44.529Z,2.30
2019-02-24T06:03:13.924Z,2.30
2019-02-24T06:05:43.325Z,2.20
2019-02-24T06:08:12.701Z,2.20
2019-02-24T06:10:42.002Z,2.20
2019-02-24T06:13:11.425Z,2.20
2019-02-24T06:15:40.782Z,2.30
2019-02-24T06:18:10.076Z,2.20
2019-02-24T06:20:39.393Z,2.20
2019-02-24T06:23:08.781Z,2.10
2019-02-24T06:25:38.065Z,2.10
2019-02-24T06:28:07.394Z,2.10
2019-02-24T06:30:36.740Z,2.10
2019-02-24T06:33:06.115Z,2.10
2019-02-24T06:35:36.063Z,2.10
2019-02-24T06:38:05.702Z,2.10
2019-02-24T06:40:35.136Z,2.00
2019-02-24T06:43:04.453Z,2.00
2019-02-24T06:45:33.856Z,2.00
2019-02-24T06:48:03.252Z,2.00
2019-02-24T06:50:51.555Z,2.00
2019-02-24T06:53:21.317Z,2.00
2019-02-24T06:55:50.684Z,2.00
2019-02-24T06:58:20.081Z,2.00
2019-02-24T07:00:49.469Z,2.00
2019-02-24T07:03:18.762Z,2.00
2019-02-24T07:05:48.193Z,2.00
2019-02-24T07:08:17.564Z,2.00
2019-02-24T07:10:46.862Z,2.00
2019-02-24T07:13:16.233Z,2.00
2019-02-24T07:15:45.589Z,2.00
2019-02-24T07:18:15.186Z,2.00
2019-02-24T07:20:44.525Z,2.00
2019-02-24T07:23:13.901Z,2.00
2019-02-24T07:25:43.285Z,2.00
2019-02-24T07:28:12.642Z,2.00
2019-02-24T07:30:42.039Z,2.10
2019-02-24T07:33:12.465Z,2.10
2019-02-24T07:35:42.038Z,2.10
2019-02-24T07:38:11.400Z,2.20
2019-02-24T07:40:40.902Z,2.20
2019-02-24T07:43:10.290Z,2.20
2019-02-24T07:45:39.838Z,2.30
2019-02-24T07:48:09.152Z,2.40
2019-02-24T07:50:38.477Z,2.40
2019-02-24T07:53:07.815Z,2.50
2019-02-24T07:55:37.186Z,2.50
2019-02-24T07:58:06.654Z,2.60
2019-02-24T08:00:36.041Z,2.70
2019-02-24T08:03:05.243Z,2.80
2019-02-24T08:05:34.581Z,2.90
2019-02-24T08:08:04.257Z,2.90
2019-02-24T08:10:33.632Z,3.10
2019-02-24T08:13:04.347Z,3.20
2019-02-24T08:15:33.761Z,3.30
2019-02-24T08:18:03.121Z,3.30
2019-02-24T08:20:33.470Z,3.40
2019-02-24T08:23:02.940Z,3.40
2019-02-24T08:25:32.354Z,3.50
2019-02-24T08:28:01.680Z,3.50
2019-02-24T08:30:30.966Z,3.60
2019-02-24T08:33:00.307Z,3.60
2019-02-24T08:35:29.761Z,3.70
2019-02-24T08:37:59.166Z,3.70
2019-02-24T08:40:28.606Z,3.80
2019-02-24T08:42:57.930Z,3.90
2019-02-24T08:45:27.229Z,4.10
2019-02-24T08:47:56.859Z,4.20
2019-02-24T08:50:26.192Z,4.30
2019-02-24T08:52:55.985Z,4.40
2019-02-24T08:55:25.569Z,4.60
2019-02-24T08:57:54.913Z,4.70
2019-02-24T09:00:24.351Z,4.70
2019-02-24T09:02:53.837Z,4.90
2019-02-24T09:05:23.223Z,4.90
2019-02-24T09:07:52.634Z,5.10
2019-02-24T09:10:22.214Z,5.20
2019-02-24T09:12:51.557Z,5.30
2019-02-24T09:15:21.005Z,5.40
2019-02-24T09:17:50.393Z,5.60
2019-02-24T09:20:19.711Z,5.70
2019-02-24T09:22:49.101Z,5.80
2019-02-24T09:25:18.485Z,5.80
2019-02-24T09:27:47.800Z,6.00
2019-02-24T09:30:17.196Z,6.10
2019-02-24T09:32:46.637Z,6.20
2019-02-24T09:35:16.049Z,6.30
2019-02-24T09:37:45.475Z,6.40
2019-02-24T09:40:14.766Z,6.50
2019-02-24T09:42:44.177Z,7.00
2019-02-24T09:45:13.557Z,7.80
2019-02-24T09:47:46.907Z,8.70
2019-02-24T09:50:14.049Z,9.50
2019-02-24T09:52:43.366Z,10.40
2019-02-24T09:55:15.273Z,11.10
2019-02-24T09:57:44.698Z,11.70
2019-02-24T10:00:14.242Z,12.30
2019-02-24T10:02:43.598Z,12.80
2019-02-24T10:05:13.073Z,13.30
2019-02-24T10:07:42.458Z,13.70
2019-02-24T10:10:11.805Z,14.00
2019-02-24T10:12:42.103Z,14.30
2019-02-24T10:15:11.548Z,14.50
2019-02-24T10:17:41.636Z,14.70
2019-02-24T10:20:11.182Z,15.00
2019-02-24T10:22:40.581Z,15.30
2019-02-24T10:25:09.946Z,15.40
2019-02-24T10:27:39.377Z,15.50
2019-02-24T10:30:09.333Z,15.20
2019-02-24T10:32:38.729Z,15.00
2019-02-24T10:35:08.398Z,14.60
2019-02-24T10:37:37.797Z,14.10
2019-02-24T10:40:09.037Z,13.80
2019-02-24T10:42:38.510Z,13.70
2019-02-24T10:45:10.494Z,14.20
2019-02-24T10:47:39.880Z,14.90
2019-02-24T10:50:11.762Z,15.80
2019-02-24T10:52:41.425Z,16.70
2019-02-24T10:55:11.652Z,17.30
2019-02-24T10:57:41.077Z,17.70
2019-02-24T11:00:12.381Z,18.00
2019-02-24T11:02:41.818Z,18.30
2019-02-24T11:05:11.341Z,18.40
2019-02-24T11:07:40.721Z,18.80
2019-02-24T11:10:10.244Z,19.20
2019-02-24T11:12:39.941Z,19.60
2019-02-24T11:15:09.406Z,19.90
2019-02-24T11:17:38.805Z,20.10
2019-02-24T11:20:09.117Z,20.40
2019-02-24T11:22:38.402Z,20.60
2019-02-24T11:25:08.491Z,20.70
2019-02-24T11:27:37.853Z,20.80
2019-02-24T11:30:08.411Z,20.90
2019-02-24T11:32:37.740Z,21.10
2019-02-24T11:35:07.398Z,21.40
2019-02-24T11:37:36.703Z,21.50
2019-02-24T11:40:07.185Z,21.70
2019-02-24T11:42:36.545Z,22.10
2019-02-24T11:45:05.986Z,22.40
2019-02-24T11:47:35.309Z,22.60
2019-02-24T11:50:04.813Z,22.70
2019-02-24T11:52:34.199Z,22.60
2019-02-24T11:55:03.616Z,22.80
2019-02-24T11:57:33.036Z,23.10
2019-02-24T12:00:03.037Z,23.30
2019-02-24T12:02:34.731Z,23.00
2019-02-24T12:05:03.355Z,23.10
2019-02-24T12:07:32.689Z,23.50
2019-02-24T12:10:02.046Z,23.60
2019-02-24T12:12:31.580Z,23.50
2019-02-24T12:15:00.967Z,23.60
2019-02-24T12:17:30.666Z,23.80
2019-02-24T12:20:00.100Z,24.00
2019-02-24T12:22:29.595Z,24.10
2019-02-24T12:24:58.908Z,24.10
2019-02-24T12:27:28.273Z,24.10
2019-02-24T12:29:57.617Z,24.20
2019-02-24T12:32:26.945Z,24.30
2019-02-24T12:34:56.348Z,24.20
2019-02-24T12:37:25.775Z,24.10
2019-02-24T12:39:57.311Z,24.00
2019-02-24T12:42:26.730Z,23.80
2019-02-24T12:44:56.166Z,23.50
2019-02-24T12:47:25.598Z,23.10
2019-02-24T12:50:02.901Z,22.70
2019-02-24T12:52:26.004Z,22.10
2019-02-24T12:54:55.296Z,21.80
2019-02-24T12:57:24.713Z,21.50
2019-02-24T12:59:54.005Z,21.10
2019-02-24T13:02:23.359Z,20.80
2019-02-24T13:04:52.800Z,20.60
2019-02-24T13:07:22.197Z,20.10
2019-02-24T13:09:51.585Z,19.90
2019-02-24T13:12:21.001Z,19.40
2019-02-24T13:14:50.320Z,19.10
2019-02-24T13:17:20.020Z,19.00
2019-02-24T13:19:49.698Z,19.00
2019-02-24T13:22:19.352Z,19.10
2019-02-24T13:24:49.891Z,19.00
2019-02-24T13:27:19.284Z,19.00
2019-02-24T13:29:48.632Z,18.90
2019-02-24T13:32:17.953Z,18.80
2019-02-24T13:34:47.741Z,18.70
2019-02-24T13:37:17.136Z,18.70
2019-02-24T13:39:46.441Z,18.70
2019-02-24T13:42:15.841Z,18.70
2019-02-24T13:44:45.253Z,18.80
2019-02-24T13:47:14.653Z,18.80
2019-02-24T13:49:44.251Z,18.70
2019-02-24T13:52:13.599Z,18.60
2019-02-24T13:54:43.003Z,18.60
2019-02-24T13:57:12.470Z,18.60
2019-02-24T13:59:41.925Z,18.60
2019-02-24T14:02:11.253Z,18.60
2019-02-24T14:04:40.613Z,18.60
2019-02-24T14:07:09.920Z,18.60
2019-02-24T14:09:39.207Z,18.70
2019-02-24T14:12:08.617Z,18.60
2019-02-24T14:14:48.730Z,18.60
2019-02-24T14:17:11.371Z,18.60
2019-02-24T14:19:40.727Z,18.50
2019-02-24T14:22:10.025Z,18.40
2019-02-24T14:24:39.530Z,18.40
2019-02-24T14:27:08.910Z,18.40
2019-02-24T14:29:38.233Z,18.30
2019-02-24T14:32:07.684Z,18.20
2019-02-24T14:34:37.184Z,18.20
2019-02-24T14:37:06.542Z,18.20
2019-02-24T14:39:36.345Z,18.10
2019-02-24T14:42:05.665Z,18.10
2019-02-24T14:44:35.253Z,18.10
2019-02-24T14:47:05.378Z,18.00
2019-02-24T14:49:37.305Z,18.00
2019-02-24T14:52:06.889Z,18.00
2019-02-24T14:54:36.514Z,17.90
2019-02-24T14:57:06.056Z,17.80
2019-02-24T14:59:35.751Z,17.70
2019-02-24T15:02:05.152Z,17.60
2019-02-24T15:04:35.378Z,17.60
2019-02-24T15:07:05.100Z,17.50
2019-02-24T15:09:35.413Z,17.50
2019-02-24T15:12:05.110Z,17.40
2019-02-24T15:14:34.817Z,17.30
2019-02-24T15:17:04.952Z,17.20
2019-02-24T15:19:34.490Z,17.20
2019-02-24T15:22:04.119Z,17.10
2019-02-24T15:24:33.806Z,17.00
2019-02-24T15:27:03.153Z,16.90
2019-02-24T15:29:32.803Z,16.90
2019-02-24T15:32:02.971Z,16.80
2019-02-24T15:34:32.256Z,16.80
2019-02-24T15:37:01.569Z,16.70
2019-02-24T15:39:30.998Z,16.70
2019-02-24T15:42:00.466Z,16.60
2019-02-24T15:44:29.791Z,16.60
2019-02-24T15:47:00.082Z,16.50
2019-02-24T15:49:29.486Z,16.50
2019-02-24T15:51:58.909Z,16.40
2019-02-24T15:54:28.306Z,16.30
2019-02-24T15:56:57.605Z,16.20
2019-02-24T15:59:27.000Z,16.20
2019-02-24T16:01:56.463Z,16.20
2019-02-24T16:04:25.855Z,16.10
2019-02-24T16:06:55.226Z,16.10
2019-02-24T16:09:25.040Z,16.00
2019-02-24T16:11:54.500Z,16.00
2019-02-24T16:14:23.842Z,15.90
2019-02-24T16:16:53.276Z,15.80
2019-02-24T16:19:22.611Z,15.80
2019-02-24T16:21:52.088Z,15.70
2019-02-24T16:24:21.470Z,15.70
2019-02-24T16:26:51.250Z,15.70
2019-02-24T16:29:20.564Z,15.60
2019-02-24T16:31:49.893Z,15.50
2019-02-24T16:34:19.180Z,15.50
2019-02-24T16:36:48.552Z,15.50
2019-02-24T16:39:17.916Z,15.40
2019-02-24T16:41:47.452Z,15.30
2019-02-24T16:44:16.890Z,15.20
2019-02-24T16:46:46.444Z,15.20
2019-02-24T16:49:15.760Z,15.10
2019-02-24T16:51:45.153Z,15.00
2019-02-24T16:54:14.542Z,14.90
2019-02-24T16:56:43.879Z,14.80
2019-02-24T16:59:13.241Z,14.70
2019-02-24T17:01:42.721Z,14.60
2019-02-24T17:04:12.456Z,14.50
2019-02-24T17:06:42.425Z,14.50
2019-02-24T17:09:11.929Z,14.30
2019-02-24T17:11:41.229Z,14.30
2019-02-24T17:14:10.606Z,14.10
2019-02-24T17:16:40.093Z,14.10
2019-02-24T17:19:09.508Z,13.90
2019-02-24T17:21:41.233Z,13.90
2019-02-24T17:24:10.663Z,13.80
2019-02-24T17:26:40.078Z,13.70
2019-02-24T17:29:09.487Z,13.60
2019-02-24T17:31:38.865Z,13.50
2019-02-24T17:34:08.237Z,13.40
2019-02-24T17:36:37.529Z,13.40
2019-02-24T17:39:07.612Z,13.30
2019-02-24T17:41:36.984Z,13.20
2019-02-24T17:44:06.336Z,13.10
2019-02-24T17:46:36.233Z,13.00
2019-02-24T17:49:05.557Z,12.90
2019-02-24T17:51:34.869Z,12.90
2019-02-24T17:54:04.274Z,12.80
2019-02-24T17:56:33.678Z,12.70
2019-02-24T17:59:03.229Z,12.70
2019-02-24T18:01:32.641Z,12.60
2019-02-24T18:04:02.114Z,12.40
2019-02-24T18:06:31.493Z,12.40
2019-02-24T18:09:00.836Z,12.30
2019-02-24T18:11:30.213Z,12.20
2019-02-24T18:13:59.548Z,12.10
2019-02-24T18:16:29.048Z,12.00
2019-02-24T18:18:58.446Z,12.00
2019-02-24T18:21:27.765Z,11.90
2019-02-24T18:23:57.202Z,11.90
2019-02-24T18:26:27.420Z,11.80
2019-02-24T18:28:56.815Z,11.70
2019-02-24T18:31:26.233Z,11.60
2019-02-24T18:33:55.612Z,11.50
2019-02-24T18:36:24.996Z,11.50
2019-02-24T18:38:54.471Z,11.40
2019-02-24T18:41:23.873Z,11.40
2019-02-24T18:43:53.578Z,11.30
2019-02-24T18:46:23.001Z,11.20
2019-02-24T18:48:52.421Z,11.20
2019-02-24T18:51:21.849Z,11.10
2019-02-24T18:53:51.277Z,11.00
2019-02-24T18:56:20.613Z,11.00
2019-02-24T18:58:50.002Z,10.90
2019-02-24T19:01:19.352Z,10.80
2019-02-24T19:03:57.183Z,10.80
2019-02-24T19:06:20.258Z,10.80
2019-02-24T19:08:49.592Z,10.70
2019-02-24T19:11:18.905Z,10.70
2019-02-24T19:13:48.295Z,10.60
2019-02-24T19:16:17.690Z,10.60
2019-02-24T19:18:46.991Z,10.50
2019-02-24T19:21:16.404Z,10.50
2019-02-24T19:23:45.806Z,10.40
2019-02-24T19:26:15.198Z,10.30
2019-02-24T19:28:44.504Z,10.30
2019-02-24T19:31:13.905Z,10.30
2019-02-24T19:33:43.222Z,10.20
2019-02-24T19:36:12.550Z,10.10
2019-02-24T19:38:41.861Z,10.10
2019-02-24T19:41:11.260Z,10.00
2019-02-24T19:43:40.563Z,9.90
2019-02-24T19:46:10.400Z,9.90
2019-02-24T19:48:41.922Z,9.80
2019-02-24T19:51:10.706Z,9.80
2019-02-24T19:53:40.029Z,9.80
2019-02-24T19:56:09.344Z,9.70
2019-02-24T19:58:38.831Z,9.70
2019-02-24T20:01:08.187Z,9.60
2019-02-24T20:03:37.598Z,9.50
2019-02-24T20:06:06.918Z,9.50
2019-02-24T20:08:36.339Z,9.40
2019-02-24T20:11:05.745Z,9.40
2019-02-24T20:13:35.169Z,9.30
2019-02-24T20:16:04.525Z,9.30
2019-02-24T20:18:33.923Z,9.20
2019-02-24T20:21:03.289Z,9.20
2019-02-24T20:23:32.623Z,9.10
2019-02-24T20:26:02.166Z,9.10
2019-02-24T20:28:31.472Z,9.00
2019-02-24T20:31:00.913Z,9.00
2019-02-24T20:33:30.269Z,8.90
2019-02-24T20:35:59.632Z,8.90
2019-02-24T20:38:29.002Z,8.90
2019-02-24T20:40:58.310Z,8.80
2019-02-24T20:43:27.616Z,8.80
2019-02-24T20:45:56.986Z,8.70
2019-02-24T20:48:26.323Z,8.70
2019-02-24T20:50:55.660Z,8.60
2019-02-24T20:53:25.057Z,8.60
2019-02-24T20:55:54.360Z,8.50
2019-02-24T20:58:23.757Z,8.50
2019-02-24T21:00:53.181Z,8.40
2019-02-24T21:03:22.678Z,8.40
2019-02-24T21:05:52.782Z,8.40
2019-02-24T21:08:22.225Z,8.40
2019-02-24T21:10:51.693Z,8.30
2019-02-24T21:13:21.014Z,8.30
2019-02-24T21:15:50.348Z,8.30
2019-02-24T21:18:19.683Z,8.30
2019-02-24T21:20:49.049Z,8.20
2019-02-24T21:23:18.484Z,8.20
2019-02-24T21:25:48.134Z,8.20
2019-02-24T21:28:17.531Z,8.10
2019-02-24T21:30:46.848Z,8.10
2019-02-24T21:33:16.143Z,8.00
2019-02-24T21:35:46.614Z,8.00
2019-02-24T21:38:16.115Z,8.00
2019-02-24T21:40:45.437Z,7.90
2019-02-24T21:43:14.838Z,7.90
2019-02-24T21:45:44.797Z,7.90
2019-02-24T21:48:14.076Z,7.80
2019-02-24T21:50:43.382Z,7.80
2019-02-24T21:53:12.717Z,7.70
2019-02-24T21:55:42.140Z,7.70
2019-02-24T21:58:11.453Z,7.60
2019-02-24T22:00:40.894Z,7.60
2019-02-24T22:03:10.276Z,7.60
2019-02-24T22:05:39.640Z,7.50
2019-02-24T22:08:09.028Z,7.50
2019-02-24T22:10:38.347Z,7.40
2019-02-24T22:13:07.743Z,7.40
2019-02-24T22:15:37.159Z,7.30
2019-02-24T22:18:06.581Z,7.30
2019-02-24T22:20:36.009Z,7.30
2019-02-24T22:23:05.395Z,7.30
2019-02-24T22:25:34.702Z,7.20
2019-02-24T22:28:04.029Z,7.20
2019-02-24T22:30:33.421Z,7.20
2019-02-24T22:33:02.881Z,7.10
2019-02-24T22:35:32.338Z,7.10
2019-02-24T22:38:01.701Z,7.00
2019-02-24T22:40:31.059Z,7.00
2019-02-24T22:43:00.346Z,7.00
2019-02-24T22:45:29.796Z,6.90
2019-02-24T22:47:59.183Z,6.90
2019-02-24T22:50:28.666Z,6.90
2019-02-24T22:52:58.004Z,6.90
2019-02-24T22:55:27.369Z,6.90
2019-02-24T22:57:56.681Z,6.90
2019-02-24T23:00:45.723Z,6.80
2019-02-24T23:03:15.102Z,6.80
2019-02-24T23:05:44.421Z,6.70
2019-02-24T23:08:13.838Z,6.60
2019-02-24T23:10:43.154Z,6.50
2019-02-24T23:13:12.625Z,6.50
2019-02-24T23:15:41.997Z,6.40
2019-02-24T23:18:11.289Z,6.40
2019-02-24T23:20:40.599Z,6.40
2019-02-24T23:23:10.077Z,6.40
2019-02-24T23:25:39.448Z,6.40
2019-02-24T23:28:08.825Z,6.40
2019-02-24T23:30:38.209Z,6.40
2019-02-24T23:33:07.637Z,6.40
2019-02-24T23:35:37.055Z,6.40
2019-02-24T23:38:06.409Z,6.40
2019-02-24T23:40:35.783Z,6.40
2019-02-24T23:43:05.172Z,6.40
2019-02-24T23:45:34.489Z,6.40
2019-02-24T23:48:03.989Z,6.30
2019-02-24T23:50:33.277Z,6.30
2019-02-24T23:53:02.681Z,6.30
2019-02-24T23:55:31.987Z,6.30
